Miyazaki Airport
RJFM : now visible

Airfield :











YOU CAN JOIN US ON...

 
LOGIN :

Register | Disclaimer

   EN    FR    IT 

 









Legend :    VFR   Marginal VFR   IFR   Intensive IFR   Very Intensive IFR
Visi :
Ceiling :
>= 8 km
>= 3000ft
5 to 8 km
1000 to 3000 ft
1500m to 5 km
500 to 1000 ft
800 to 1500m
200 to 500 ft
< 800m
< 200 ft
Symbols :   Thunderstorms  Fog  Heavy snow  Heavy precipitations  Wind > 20 kt







- Airport Elevation : 20 ft
- IATA code : KMI


RJFM - Miyazaki

CURRENT METAR :
  • 250500Z 05003KT 010V100 9999 FEW030 SCT090 BKN110 14/M01 Q1017

EXPIRED METARs :
  • 250400Z 32005KT 290V360 9999 FEW030 BKN100 BKN120 14/M01 Q1018
  • 250300Z 32004KT 250V040 9999 FEW030 SCT100 BKN120 14/02 Q1019

TAF TAF RJFM
Valid from the 25 at 00:00 until the 26 at 06:00 UTC


242309Z 2500/2606 30007KT 9999 FEW030
BECMG 2501/2503 11004KT
BECMG 2504/2506 28010KT
BECMG 2600/2603 11008KT
RJJJ FIR / Asia



MET'MAP, your aeronautical weather chart ! - Copyright ORBIFLY December 2007 - Disclaimer

ORBIFLY MET'MAP TEAM :

Programming & Development : Alexandra Zaïnal
Concept & Development : Baudouin d'Aumeries
Co-Development & Prog : Marc-Olivier Méhu
Technical & hardware support : Manuel Goepfert

Contact : metmap@orbifly.com




SOURCES & CREDITS :

   NOAA       Earth
Advisory